Darstellungsparameter: Aktuell verwendete Einstellungen:
Skalierung der Graphiken ... ?
xyx+y,   Skalierungsfaktor:      Skalierung: Modus: x, Faktor: 1
Darstellungszeitraum ... ?
Vom - - bis: - -   Zeitraum: 27.04.2018 - 27.04.2018
Min/Max/Avg-Anzeige ... ?
Zeige MMA aktuell
Zeige MMA Monat
Zeige MMA alles
Zeige --A aktuell
Zeige --A Monat
Zeige --A alles
Keine MMA-Anzeige
MMA:
Average (ber die Originaldaten)
MMA-Basis: 27.04.2018 - 27.04.2018
Quicknavigation für Darstellung... ?
Tage:      1T, 2T, 3T, 5T -1T -2T -3T -5T +1T +2T +3T +5T
Wochen: 1W, 2W, 3W -1W -2W -3W +1W +2W +3W
Monate: 1M, 3M, 6M -1M -3M -6M +1M +3M +6M
Jahre:    1J, 3J, 5J, 10J -1J -3J -5J -10J +1J +3J +5J +10J
Nutze für die Darstellung ... ?
Originaldaten oder Mittelwerte auf ...
Stundenbasis Tagesbasis Wochenbasis
Monatsbasis Jahresbasis      Datenbasis: Original-Daten
Darstellen als:
Statistik (Auto) Statistik J:M      Darstellung:
Zur Graphik,    zurück zur Übersicht aller Sensoren.
 
Tabellarische Datenbersicht: ?
 
Sensor: Nr:Datum:Temp:Abs-Feuchte:Windchill:Wind:
Aussen-T/F 1 27-04-2018 00:00:00 6.9 C 6.24 g/m*3 6.9 C 0 km/h
2 27-04-2018 00:05:00 6.8 C 6.19 g/m*3 6.8 C 0 km/h
3 27-04-2018 00:10:00 6.8 C 6.19 g/m*3 6.8 C 0 km/h
4 27-04-2018 00:15:00 6.9 C 6.24 g/m*3 6.9 C 0 km/h
5 27-04-2018 00:20:00 6.9 C 6.24 g/m*3 6.9 C 1.6 km/h
6 27-04-2018 00:25:00 7 C 6.28 g/m*3 7 C 0 km/h
7 27-04-2018 00:30:00 7 C 6.2 g/m*3 7 C 1.6 km/h
8 27-04-2018 00:35:00 6.9 C 6.24 g/m*3 6.9 C 0 km/h
9 27-04-2018 00:40:00 6.9 C 6.24 g/m*3 6.9 C 0 km/h
10 27-04-2018 00:45:00 6.9 C 6.24 g/m*3 6.9 C 0 km/h
11 27-04-2018 00:50:00 6.8 C 6.19 g/m*3 6.8 C 0 km/h
12 27-04-2018 00:55:00 6.8 C 6.19 g/m*3 6.8 C 0 km/h
13 27-04-2018 01:00:00 6.8 C 6.27 g/m*3 6.8 C 0 km/h
14 27-04-2018 01:05:00 6.7 C 6.23 g/m*3 6.7 C 0 km/h
15 27-04-2018 01:10:00 6.6 C 6.19 g/m*3 6.6 C 0 km/h
16 27-04-2018 01:15:00 6.6 C 6.27 g/m*3 6.6 C 0 km/h
17 27-04-2018 01:20:00 6.5 C 6.22 g/m*3 6.5 C 0 km/h
18 27-04-2018 01:25:00 6.4 C 6.18 g/m*3 6.4 C 0 km/h
19 27-04-2018 01:30:00 6.4 C 6.18 g/m*3 6.4 C 0 km/h
20 27-04-2018 01:35:00 6.3 C 6.22 g/m*3 6.3 C 0 km/h
21 27-04-2018 01:40:00 6.4 C 6.26 g/m*3 6.4 C 3.2 km/h
22 27-04-2018 01:45:00 6.4 C 6.26 g/m*3 6.4 C 0 km/h
23 27-04-2018 01:50:00 6.3 C 6.22 g/m*3 6.3 C 0 km/h
24 27-04-2018 01:55:00 6.3 C 6.22 g/m*3 6.3 C 0 km/h
25 27-04-2018 02:00:00 6.2 C 6.18 g/m*3 6.2 C 0 km/h
Sensor: Nr:Datum:Temp:Abs-Feuchte:Windchill:Wind:
Aussen-T/F 26 27-04-2018 02:05:00 6.1 C 6.14 g/m*3 6.1 C 0 km/h
27 27-04-2018 02:10:00 5.9 C 6.06 g/m*3 5.9 C 0 km/h
28 27-04-2018 02:15:00 5.8 C 6.09 g/m*3 5.8 C 0 km/h
29 27-04-2018 02:20:00 5.7 C 6.05 g/m*3 5.7 C 0 km/h
30 27-04-2018 02:25:00 5.6 C 6.01 g/m*3 5.6 C 0 km/h
31 27-04-2018 02:30:00 5.6 C 6.08 g/m*3 5.6 C 0 km/h
32 27-04-2018 02:35:00 5.5 C 6.11 g/m*3 5.5 C 0 km/h
33 27-04-2018 02:40:00 5.4 C 6.07 g/m*3 5.4 C 0 km/h
34 27-04-2018 02:45:00 5.4 C 6.07 g/m*3 5.4 C 0 km/h
35 27-04-2018 02:50:00 5.3 C 6.03 g/m*3 5.3 C 0 km/h
36 27-04-2018 02:55:00 5.2 C 6.06 g/m*3 5.2 C 0 km/h
37 27-04-2018 03:00:00 5.2 C 6.06 g/m*3 5.2 C 0 km/h
38 27-04-2018 03:05:00 5.1 C 6.02 g/m*3 5.1 C 0 km/h
39 27-04-2018 03:10:00 5.1 C 6.02 g/m*3 5.1 C 0 km/h
40 27-04-2018 03:15:00 5 C 5.98 g/m*3 5 C 0 km/h
41 27-04-2018 03:20:00 4.9 C 5.94 g/m*3 4.9 C 0 km/h
42 27-04-2018 03:25:00 4.9 C 6.01 g/m*3 4.9 C 0 km/h
43 27-04-2018 03:30:00 4.9 C 6.01 g/m*3 4.9 C 0 km/h
44 27-04-2018 03:35:00 4.8 C 5.97 g/m*3 4.8 C 0 km/h
45 27-04-2018 03:40:00 4.8 C 5.97 g/m*3 4.8 C 0 km/h
46 27-04-2018 03:45:00 4.8 C 5.97 g/m*3 4.8 C 0 km/h
47 27-04-2018 03:50:00 4.7 C 5.93 g/m*3 4.7 C 0 km/h
48 27-04-2018 03:55:00 4.7 C 6 g/m*3 4.7 C 0 km/h
49 27-04-2018 04:00:00 4.7 C 6 g/m*3 4.7 C 0 km/h
50 27-04-2018 04:05:00 4.7 C 6 g/m*3 4.7 C 0 km/h
Sensor: Nr:Datum:Temp:Abs-Feuchte:Windchill:Wind:
Aussen-T/F 51 27-04-2018 04:10:00 4.8 C 6.1 g/m*3 4.8 C 0 km/h
52 27-04-2018 04:15:00 4.9 C 6.14 g/m*3 4.9 C 0 km/h
53 27-04-2018 04:20:00 5.1 C 6.22 g/m*3 5.1 C 0 km/h
54 27-04-2018 04:25:00 5.2 C 6.27 g/m*3 5.2 C 0 km/h
55 27-04-2018 04:30:00 5.2 C 6.27 g/m*3 5.2 C 0 km/h
56 27-04-2018 04:35:00 5.2 C 6.27 g/m*3 5.2 C 0 km/h
57 27-04-2018 04:40:00 5.2 C 6.27 g/m*3 5.2 C 0 km/h
58 27-04-2018 04:45:00 5.2 C 6.27 g/m*3 5.2 C 0 km/h
59 27-04-2018 04:50:00 5.2 C 6.27 g/m*3 5.2 C 0 km/h
60 27-04-2018 04:55:00 5.2 C 6.27 g/m*3 5.2 C 0 km/h
61 27-04-2018 05:00:00 5.2 C 6.27 g/m*3 5.2 C 0 km/h
62 27-04-2018 05:05:00 5.2 C 6.27 g/m*3 5.2 C 0 km/h
63 27-04-2018 05:10:00 5.2 C 6.27 g/m*3 5.2 C 0 km/h
64 27-04-2018 05:15:00 5.2 C 6.27 g/m*3 5.2 C 0 km/h
65 27-04-2018 05:20:00 5.2 C 6.27 g/m*3 5.2 C 0 km/h
66 27-04-2018 05:25:00 5.2 C 6.27 g/m*3 5.2 C 0 km/h
67 27-04-2018 05:30:00 5.2 C 6.27 g/m*3 5.2 C 0 km/h
68 27-04-2018 05:35:00 5.2 C 6.27 g/m*3 5.2 C 0 km/h
69 27-04-2018 05:40:00 5.2 C 6.27 g/m*3 5.2 C 0 km/h
70 27-04-2018 05:45:00 5.1 C 6.16 g/m*3 5.1 C 1.6 km/h
71 27-04-2018 05:50:00 5.1 C 6.22 g/m*3 5.1 C 0 km/h
72 27-04-2018 05:55:00 5.1 C 6.16 g/m*3 5.1 C 0 km/h
73 27-04-2018 06:00:00 4.9 C 6.08 g/m*3 4.9 C 0 km/h
74 27-04-2018 06:05:00 4.9 C 6.08 g/m*3 4.9 C 0 km/h
75 27-04-2018 06:10:00 4.8 C 6.04 g/m*3 4.8 C 0 km/h
Sensor: Nr:Datum:Temp:Abs-Feuchte:Windchill:Wind:
Aussen-T/F 76 27-04-2018 06:15:00 4.7 C 6 g/m*3 4.7 C 0 km/h
77 27-04-2018 06:20:00 4.7 C 6 g/m*3 4.7 C 0 km/h
78 27-04-2018 06:25:00 4.6 C 6.02 g/m*3 4.6 C 0 km/h
79 27-04-2018 06:30:00 4.5 C 5.98 g/m*3 4.5 C 0 km/h
80 27-04-2018 06:35:00 4.4 C 5.94 g/m*3 4.4 C 0 km/h
81 27-04-2018 06:40:00 4.4 C 5.94 g/m*3 4.4 C 0 km/h
82 27-04-2018 06:45:00 4.4 C 5.94 g/m*3 4.4 C 0 km/h
83 27-04-2018 06:50:00 4.4 C 5.94 g/m*3 4.4 C 0 km/h
84 27-04-2018 06:55:00 4.4 C 6.01 g/m*3 4.4 C 0 km/h
85 27-04-2018 07:00:00 4.4 C 6.01 g/m*3 4.4 C 0 km/h
86 27-04-2018 07:05:00 4.6 C 6.09 g/m*3 4.6 C 0 km/h
87 27-04-2018 07:10:00 4.6 C 6.09 g/m*3 4.6 C 0 km/h
88 27-04-2018 07:15:00 4.7 C 6.19 g/m*3 4.7 C 0 km/h
89 27-04-2018 07:20:00 4.8 C 6.24 g/m*3 4.8 C 0 km/h
90 27-04-2018 07:25:00 5 C 6.32 g/m*3 5 C 0 km/h
91 27-04-2018 07:30:00 5.2 C 6.4 g/m*3 5.2 C 0 km/h
92 27-04-2018 07:35:00 5.3 C 6.45 g/m*3 5.3 C 0 km/h
93 27-04-2018 07:40:00 5.4 C 6.49 g/m*3 5.4 C 0 km/h
94 27-04-2018 07:45:00 5.4 C 6.49 g/m*3 5.4 C 0 km/h
95 27-04-2018 07:50:00 5.6 C 6.57 g/m*3 5.6 C 0 km/h
96 27-04-2018 07:55:00 5.7 C 6.62 g/m*3 5.7 C 0 km/h
97 27-04-2018 08:00:00 5.7 C 6.62 g/m*3 5.7 C 0 km/h
98 27-04-2018 08:05:00 5.8 C 6.66 g/m*3 5.8 C 0 km/h
99 27-04-2018 08:10:00 5.8 C 6.59 g/m*3 5.8 C 0 km/h
100 27-04-2018 08:15:00 5.9 C 6.63 g/m*3 5.9 C 0 km/h
Sensor: Nr:Datum:Temp:Abs-Feuchte:Windchill:Wind:
Aussen-T/F 101 27-04-2018 08:20:00 6.1 C 6.72 g/m*3 6.1 C 0 km/h
102 27-04-2018 08:25:00 6.2 C 6.69 g/m*3 6.2 C 0 km/h
103 27-04-2018 08:30:00 6.3 C 6.74 g/m*3 6.3 C 0 km/h
104 27-04-2018 08:35:00 6.4 C 6.71 g/m*3 6.4 C 0 km/h
105 27-04-2018 08:40:00 6.6 C 6.87 g/m*3 6.6 C 0 km/h
106 27-04-2018 08:45:00 6.7 C 6.84 g/m*3 6.7 C 0 km/h
107 27-04-2018 08:50:00 6.8 C 6.88 g/m*3 6.8 C 0 km/h
108 27-04-2018 08:55:00 6.9 C 6.93 g/m*3 6.9 C 0 km/h
109 27-04-2018 09:00:00 7.1 C 6.94 g/m*3 7.1 C 0 km/h
110 27-04-2018 09:05:00 7.2 C 6.91 g/m*3 7.2 C 0 km/h
111 27-04-2018 09:10:00 7.3 C 6.95 g/m*3 7.3 C 0 km/h
112 27-04-2018 09:15:00 7.5 C 7.04 g/m*3 7.5 C 0 km/h
113 27-04-2018 09:20:00 7.6 C 7.01 g/m*3 7.6 C 0 km/h
114 27-04-2018 09:25:00 7.8 C 7.18 g/m*3 7.8 C 0 km/h
115 27-04-2018 09:30:00 8 C 7.28 g/m*3 8 C 0 km/h
116 27-04-2018 09:35:00 8.1 C 7.32 g/m*3 8.1 C 0 km/h
117 27-04-2018 09:40:00 8.3 C 7.42 g/m*3 8.3 C 0 km/h
118 27-04-2018 09:45:00 8.4 C 7.55 g/m*3 8.4 C 0 km/h
119 27-04-2018 09:50:00 8.6 C 7.56 g/m*3 8.6 C 0 km/h
120 27-04-2018 09:55:00 8.7 C 7.7 g/m*3 8.7 C 0 km/h
121 27-04-2018 10:00:00 8.9 C 7.8 g/m*3 8.9 C 0 km/h
122 27-04-2018 10:05:00 9.1 C 7.9 g/m*3 9.1 C 0 km/h
123 27-04-2018 10:10:00 9.3 C 8 g/m*3 9.3 C 0 km/h
124 27-04-2018 10:15:00 9.6 C 8.06 g/m*3 9.6 C 1.6 km/h
125 27-04-2018 10:20:00 9.9 C 8.03 g/m*3 9.9 C 1.6 km/h
Sensor: Nr:Datum:Temp:Abs-Feuchte:Windchill:Wind:
Aussen-T/F 126 27-04-2018 10:25:00 10.3 C 7.85 g/m*3 9.72 C 6.4 km/h
127 27-04-2018 10:30:00 10.8 C 7.71 g/m*3 10.8 C 3.2 km/h
128 27-04-2018 10:35:00 11.3 C 7.65 g/m*3 11.3 C 6.4 km/h
129 27-04-2018 10:40:00 12 C 8.1 g/m*3 12 C 4.8 km/h
130 27-04-2018 10:45:00 12.3 C 7.49 g/m*3 12.3 C 4.8 km/h
131 27-04-2018 10:50:00 12.7 C 7.24 g/m*3 12.7 C 14.5 km/h
132 27-04-2018 10:55:00 13 C 7.14 g/m*3 13 C 14.5 km/h
133 27-04-2018 11:00:00 13.2 C 7 g/m*3 13.2 C 6.4 km/h
134 27-04-2018 11:05:00 13.4 C 7.21 g/m*3 13.4 C 8.1 km/h
135 27-04-2018 11:10:00 13.5 C 6.9 g/m*3 13.5 C 6.4 km/h
136 27-04-2018 11:15:00 13.7 C 7.34 g/m*3 13.7 C 16.1 km/h
137 27-04-2018 11:20:00 13.8 C 6.91 g/m*3 13.8 C 16.1 km/h
138 27-04-2018 11:25:00 13.8 C 6.91 g/m*3 13.8 C 6.4 km/h
139 27-04-2018 11:30:00 13.8 C 6.67 g/m*3 13.8 C 6.4 km/h
140 27-04-2018 11:35:00 13.9 C 6.83 g/m*3 13.9 C 6.4 km/h
141 27-04-2018 11:40:00 14.2 C 6.47 g/m*3 14.2 C 6.4 km/h
142 27-04-2018 11:45:00 14.3 C 6.63 g/m*3 14.3 C 9.7 km/h
143 27-04-2018 11:50:00 14.4 C 6.68 g/m*3 14.4 C 8.1 km/h
144 27-04-2018 11:55:00 14.6 C 6.51 g/m*3 14.6 C 11.3 km/h
145 27-04-2018 12:00:00 14.8 C 6.21 g/m*3 14.8 C 11.3 km/h
146 27-04-2018 12:05:00 14.9 C 6.25 g/m*3 14.9 C 9.7 km/h
147 27-04-2018 12:10:00 15 C 6.03 g/m*3 15 C 6.4 km/h
148 27-04-2018 12:15:00 14.9 C 6.12 g/m*3 14.9 C 8.1 km/h
149 27-04-2018 12:20:00 14.9 C 6.25 g/m*3 14.9 C 12.9 km/h
150 27-04-2018 12:25:00 14.9 C 5.99 g/m*3 14.9 C 17.7 km/h
Sensor: Nr:Datum:Temp:Abs-Feuchte:Windchill:Wind:
Aussen-T/F 151 27-04-2018 12:30:00 15.1 C 6.19 g/m*3 15.1 C 9.7 km/h
152 27-04-2018 12:35:00 15.3 C 6.27 g/m*3 15.3 C 14.5 km/h
153 27-04-2018 12:40:00 15.5 C 6.48 g/m*3 15.5 C 11.3 km/h
154 27-04-2018 12:45:00 15.6 C 6.25 g/m*3 15.6 C 9.7 km/h
155 27-04-2018 12:50:00 15.7 C 5.89 g/m*3 15.7 C 8.1 km/h
156 27-04-2018 12:55:00 15.8 C 6.06 g/m*3 15.8 C 12.9 km/h
157 27-04-2018 13:00:00 15.8 C 6.06 g/m*3 15.8 C 12.9 km/h
158 27-04-2018 13:05:00 15.8 C 5.79 g/m*3 15.8 C 16.1 km/h
159 27-04-2018 13:10:00 15.9 C 6.09 g/m*3 15.9 C 14.5 km/h
160 27-04-2018 13:15:00 16.1 C 5.89 g/m*3 16.1 C 11.3 km/h
161 27-04-2018 13:20:00 16.2 C 5.79 g/m*3 16.2 C 12.9 km/h
162 27-04-2018 13:25:00 16.3 C 6.1 g/m*3 16.3 C 12.9 km/h
163 27-04-2018 13:30:00 16.5 C 6.32 g/m*3 16.5 C 8.1 km/h
164 27-04-2018 13:35:00 16.6 C 6.22 g/m*3 16.6 C 11.3 km/h
165 27-04-2018 13:40:00 16.6 C 6.07 g/m*3 16.6 C 11.3 km/h
166 27-04-2018 13:45:00 16.5 C 6.32 g/m*3 16.5 C 4.8 km/h
167 27-04-2018 13:50:00 16.6 C 6.36 g/m*3 16.6 C 9.7 km/h
168 27-04-2018 13:55:00 16.6 C 6.5 g/m*3 16.6 C 11.3 km/h
169 27-04-2018 14:00:00 16.7 C 6.68 g/m*3 16.7 C 14.5 km/h
170 27-04-2018 14:05:00 16.8 C 7.01 g/m*3 16.8 C 12.9 km/h
171 27-04-2018 14:10:00 16.7 C 6.25 g/m*3 16.7 C 9.7 km/h
172 27-04-2018 14:15:00 16.7 C 6.68 g/m*3 16.7 C 6.4 km/h
173 27-04-2018 14:20:00 16.7 C 6.54 g/m*3 16.7 C 16.1 km/h
174 27-04-2018 14:25:00 16.7 C 6.54 g/m*3 16.7 C 8.1 km/h
175 27-04-2018 14:30:00 16.7 C 6.54 g/m*3 16.7 C 12.9 km/h
Sensor: Nr:Datum:Temp:Abs-Feuchte:Windchill:Wind:
Aussen-T/F 176 27-04-2018 14:35:00 16.8 C 6.58 g/m*3 16.8 C 6.4 km/h
177 27-04-2018 14:40:00 16.8 C 6.72 g/m*3 16.8 C 9.7 km/h
178 27-04-2018 14:45:00 17.1 C 6.84 g/m*3 17.1 C 11.3 km/h
179 27-04-2018 14:50:00 17.2 C 6.44 g/m*3 17.2 C 14.5 km/h
180 27-04-2018 14:55:00 17.4 C 6.67 g/m*3 17.4 C 14.5 km/h
181 27-04-2018 15:00:00 17.7 C 6.64 g/m*3 17.7 C 11.3 km/h
182 27-04-2018 15:05:00 17.8 C 6.68 g/m*3 17.8 C 11.3 km/h
183 27-04-2018 15:10:00 18 C 6.6 g/m*3 18 C 11.3 km/h
184 27-04-2018 15:15:00 17.9 C 6.72 g/m*3 17.9 C 14.5 km/h
185 27-04-2018 15:20:00 18 C 6.91 g/m*3 18 C 12.9 km/h
186 27-04-2018 15:25:00 18.1 C 6.8 g/m*3 18.1 C 11.3 km/h
187 27-04-2018 15:30:00 18.2 C 7.15 g/m*3 18.2 C 8.1 km/h
188 27-04-2018 15:35:00 18.4 C 6.92 g/m*3 18.4 C 6.4 km/h
189 27-04-2018 15:40:00 18.6 C 6.68 g/m*3 18.6 C 17.7 km/h
190 27-04-2018 15:45:00 18.7 C 7.04 g/m*3 18.7 C 11.3 km/h
191 27-04-2018 15:50:00 18.7 C 6.72 g/m*3 18.7 C 17.7 km/h
192 27-04-2018 15:55:00 18.7 C 6.88 g/m*3 18.7 C 6.4 km/h
193 27-04-2018 16:00:00 18.6 C 6.84 g/m*3 18.6 C 11.3 km/h
194 27-04-2018 16:05:00 18.6 C 7.16 g/m*3 18.6 C 8.1 km/h
195 27-04-2018 16:10:00 18.8 C 7.25 g/m*3 18.8 C 4.8 km/h
196 27-04-2018 16:15:00 18.9 C 7.13 g/m*3 18.9 C 12.9 km/h
197 27-04-2018 16:20:00 19.2 C 7.09 g/m*3 19.2 C 8.1 km/h
198 27-04-2018 16:25:00 19.4 C 7.01 g/m*3 19.4 C 8.1 km/h
199 27-04-2018 16:30:00 19.7 C 6.62 g/m*3 19.7 C 9.7 km/h
200 27-04-2018 16:35:00 19.8 C 6.66 g/m*3 19.8 C 12.9 km/h
Sensor: Nr:Datum:Temp:Abs-Feuchte:Windchill:Wind:
Aussen-T/F 201 27-04-2018 16:40:00 19.9 C 6.87 g/m*3 19.9 C 16.1 km/h
202 27-04-2018 16:45:00 20.2 C 6.82 g/m*3 20.2 C 11.3 km/h
203 27-04-2018 16:50:00 20.5 C 6.94 g/m*3 20.5 C 4.8 km/h
204 27-04-2018 16:55:00 21 C 6.96 g/m*3 21 C 12.9 km/h
205 27-04-2018 17:00:00 21.2 C 7.23 g/m*3 21.2 C 12.9 km/h
206 27-04-2018 17:05:00 21.3 C 6.9 g/m*3 21.3 C 12.9 km/h
207 27-04-2018 17:10:00 21.3 C 6.9 g/m*3 21.3 C 12.9 km/h
208 27-04-2018 17:15:00 21.4 C 6.75 g/m*3 21.4 C 11.3 km/h
209 27-04-2018 17:20:00 21.4 C 6.56 g/m*3 21.4 C 12.9 km/h
210 27-04-2018 17:25:00 21.3 C 6.52 g/m*3 21.3 C 11.3 km/h
211 27-04-2018 17:30:00 21.4 C 6.75 g/m*3 21.4 C 11.3 km/h
212 27-04-2018 17:35:00 21.6 C 7.21 g/m*3 21.6 C 9.7 km/h
213 27-04-2018 17:40:00 21.5 C 6.41 g/m*3 21.5 C 9.7 km/h
214 27-04-2018 17:45:00 21.4 C 6.94 g/m*3 21.4 C 12.9 km/h
215 27-04-2018 17:50:00 21.6 C 6.83 g/m*3 21.6 C 6.4 km/h
216 27-04-2018 17:55:00 21.7 C 6.87 g/m*3 21.7 C 6.4 km/h
217 27-04-2018 18:00:00 22 C 6.79 g/m*3 22 C 6.4 km/h
218 27-04-2018 18:05:00 22.1 C 7.22 g/m*3 22.1 C 6.4 km/h
219 27-04-2018 18:10:00 22.1 C 6.83 g/m*3 22.1 C 9.7 km/h
220 27-04-2018 18:15:00 21.7 C 7.25 g/m*3 21.7 C 8.1 km/h
221 27-04-2018 18:20:00 21.4 C 6.75 g/m*3 21.4 C 8.1 km/h
222 27-04-2018 18:25:00 21 C 7.51 g/m*3 21 C 6.4 km/h
223 27-04-2018 18:30:00 20.8 C 6.88 g/m*3 20.8 C 8.1 km/h
224 27-04-2018 18:35:00 20.8 C 6.7 g/m*3 20.8 C 4.8 km/h
225 27-04-2018 18:40:00 20.8 C 7.42 g/m*3 20.8 C 3.2 km/h
Sensor: Nr:Datum:Temp:Abs-Feuchte:Windchill:Wind:
Aussen-T/F 226 27-04-2018 18:45:00 21.1 C 6.82 g/m*3 21.1 C 4.8 km/h
227 27-04-2018 18:50:00 21.2 C 7.04 g/m*3 21.2 C 4.8 km/h
228 27-04-2018 18:55:00 21.3 C 7.08 g/m*3 21.3 C 1.6 km/h
229 27-04-2018 19:00:00 21.3 C 7.08 g/m*3 21.3 C 6.4 km/h
230 27-04-2018 19:05:00 21.3 C 7.08 g/m*3 21.3 C 6.4 km/h
231 27-04-2018 19:10:00 21.4 C 7.31 g/m*3 21.4 C 4.8 km/h
232 27-04-2018 19:15:00 21.3 C 7.27 g/m*3 21.3 C 4.8 km/h
233 27-04-2018 19:20:00 21.2 C 7.41 g/m*3 21.2 C 4.8 km/h
234 27-04-2018 19:25:00 20.9 C 8.2 g/m*3 20.9 C 0 km/h
235 27-04-2018 19:30:00 20.7 C 8.46 g/m*3 20.7 C 0 km/h
236 27-04-2018 19:35:00 20.4 C 8.14 g/m*3 20.4 C 0 km/h
237 27-04-2018 19:40:00 20.2 C 8.57 g/m*3 20.2 C 1.6 km/h
238 27-04-2018 19:45:00 19.9 C 8.08 g/m*3 19.9 C 3.2 km/h
239 27-04-2018 19:50:00 19.7 C 8.49 g/m*3 19.7 C 0 km/h
240 27-04-2018 19:55:00 19.4 C 8.34 g/m*3 19.4 C 0 km/h
241 27-04-2018 20:00:00 19.1 C 8.36 g/m*3 19.1 C 0 km/h
242 27-04-2018 20:05:00 18.7 C 8.17 g/m*3 18.7 C 1.6 km/h
243 27-04-2018 20:10:00 18.1 C 8.34 g/m*3 18.1 C 0 km/h
244 27-04-2018 20:15:00 17.6 C 8.25 g/m*3 17.6 C 1.6 km/h
245 27-04-2018 20:20:00 17.1 C 8.3 g/m*3 17.1 C 0 km/h
246 27-04-2018 20:25:00 16.6 C 8.19 g/m*3 16.6 C 0 km/h
247 27-04-2018 20:30:00 16.1 C 8.09 g/m*3 16.1 C 0 km/h
248 27-04-2018 20:35:00 15.7 C 8.03 g/m*3 15.7 C 0 km/h
249 27-04-2018 20:40:00 15.3 C 7.97 g/m*3 15.3 C 0 km/h
250 27-04-2018 20:45:00 15.1 C 8.13 g/m*3 15.1 C 0 km/h
Sensor: Nr:Datum:Temp:Abs-Feuchte:Windchill:Wind:
Aussen-T/F 251 27-04-2018 20:50:00 14.8 C 7.98 g/m*3 14.8 C 0 km/h
252 27-04-2018 20:55:00 14.5 C 8.08 g/m*3 14.5 C 0 km/h
253 27-04-2018 21:00:00 14.2 C 8.06 g/m*3 14.2 C 0 km/h
254 27-04-2018 21:05:00 13.9 C 8.03 g/m*3 13.9 C 0 km/h
255 27-04-2018 21:10:00 13.7 C 7.93 g/m*3 13.7 C 0 km/h
256 27-04-2018 21:15:00 13.5 C 7.84 g/m*3 13.5 C 0 km/h
257 27-04-2018 21:20:00 13.4 C 7.79 g/m*3 13.4 C 0 km/h
258 27-04-2018 21:25:00 13.4 C 7.9 g/m*3 13.4 C 0 km/h
259 27-04-2018 21:30:00 13.3 C 7.97 g/m*3 13.3 C 0 km/h
260 27-04-2018 21:35:00 13.2 C 7.92 g/m*3 13.2 C 0 km/h
261 27-04-2018 21:40:00 13.1 C 7.87 g/m*3 13.1 C 0 km/h
262 27-04-2018 21:45:00 12.9 C 7.78 g/m*3 12.9 C 0 km/h
263 27-04-2018 21:50:00 12.9 C 7.89 g/m*3 12.9 C 0 km/h
264 27-04-2018 21:55:00 12.8 C 7.84 g/m*3 12.8 C 0 km/h
265 27-04-2018 22:00:00 12.7 C 7.68 g/m*3 12.7 C 0 km/h
266 27-04-2018 22:05:00 12.7 C 7.79 g/m*3 12.7 C 0 km/h
267 27-04-2018 22:10:00 12.6 C 7.74 g/m*3 12.6 C 3.2 km/h
268 27-04-2018 22:15:00 12.6 C 7.74 g/m*3 12.6 C 6.4 km/h
269 27-04-2018 22:20:00 12.6 C 7.74 g/m*3 12.6 C 4.8 km/h
270 27-04-2018 22:25:00 12.6 C 7.85 g/m*3 12.6 C 3.2 km/h
271 27-04-2018 22:30:00 12.7 C 7.79 g/m*3 12.7 C 0 km/h
272 27-04-2018 22:35:00 12.7 C 8.01 g/m*3 12.7 C 0 km/h
273 27-04-2018 22:40:00 12.7 C 7.9 g/m*3 12.7 C 0 km/h
274 27-04-2018 22:45:00 12.7 C 7.9 g/m*3 12.7 C 0 km/h
275 27-04-2018 22:50:00 12.7 C 7.9 g/m*3 12.7 C 0 km/h
Sensor: Nr:Datum:Temp:Abs-Feuchte:Windchill:Wind:
Aussen-T/F 276 27-04-2018 22:55:00 12.7 C 7.9 g/m*3 12.7 C 0 km/h
277 27-04-2018 23:00:00 12.6 C 7.74 g/m*3 12.6 C 0 km/h
278 27-04-2018 23:05:00 12.6 C 7.85 g/m*3 12.6 C 0 km/h
279 27-04-2018 23:10:00 12.6 C 7.74 g/m*3 12.6 C 1.6 km/h
280 27-04-2018 23:15:00 12.6 C 7.85 g/m*3 12.6 C 0 km/h
281 27-04-2018 23:20:00 12.5 C 7.7 g/m*3 12.5 C 0 km/h
282 27-04-2018 23:25:00 12.5 C 7.81 g/m*3 12.5 C 0 km/h
283 27-04-2018 23:30:00 12.4 C 7.76 g/m*3 12.4 C 0 km/h
284 27-04-2018 23:35:00 12.3 C 7.71 g/m*3 12.3 C 0 km/h
285 27-04-2018 23:40:00 12.2 C 7.66 g/m*3 12.2 C 0 km/h
286 27-04-2018 23:45:00 12.1 C 7.72 g/m*3 12.1 C 0 km/h
287 27-04-2018 23:50:00 12 C 7.78 g/m*3 12 C 0 km/h
288 27-04-2018 23:55:00 11.9 C 7.73 g/m*3 11.9 C 0 km/h

Legende:
   Min
   Max


Maximal/Minimal-Werte vom 27.04.2018 - 27.04.2018

Sensor Min Max Avg
Temp
(Aussen-T/F)
4.4 °C
27-04-2018  06:35:00
22.1 °C
27-04-2018  18:05:00
11.96 °C
Abs-Feuchte
(Aussen-T/F)
5.79 g/m*3
27-04-2018  13:05:00
8.57 g/m*3
27-04-2018  19:40:00
6.8 g/m*3
Windchill
(Aussen-T/F)
4.4 C
27-04-2018  06:35:00
22.1 C
27-04-2018  18:05:00
11.92 C

Die Daten stammen von einer Davis Vantage Pro 2 Wetter-Station und werden unter Linux mit der Software wview2wettercgi und aufbereitet. Alle Angaben erfolgen ohne Gewähr für ihre Vollständigkeit oder Richtigkeit.
Kontakt: Rainer Krienke krienke@uni-koblenz.de . Meine Webseiten an der Uni Koblenz oder privat.
Version: $Revision: 0.78 $